Thassos III — SVA2112 — position and weather

sailwx.info

Track history (hours):
 
Tides and Currents Weather Stations Pressure Air Temp Water Temp Dewpoint Dewpoint Depression Visibility Wind Speed Wind Dir Waves Ship Positions

Thassos III

Last reported at 2017-Nov-19 12:28 UTC. Time now 2017-Nov-20 00:38 UTC.
Position N 40°47' E 024°43'.

Length 100 m; draft 2.1 m.

Type: Passenger vessel. MMSI: 239371500.

Date/timePositionNaut miles runAvg speedWind from/ knotsBaromVisibWave heightAir tempDewpointWater temp
2017-Nov-19 12:28N 40°47' E 024°43'3 7.0
2017-Nov-19 12:00N 40°50' E 024°41'2 3.5
2017-Nov-19 11:30N 40°51' E 024°42'1 1.0
2017-Nov-19 11:00N 40°52' E 024°41'5 9.6
2017-Nov-19 10:30N 40°47' E 024°42'0 0.0
2017-Nov-19 10:00N 40°47' E 024°42'0 0.0
2017-Nov-19 09:30N 40°47' E 024°42'0 0.0
2017-Nov-19 09:00N 40°47' E 024°42'0 0.0
2017-Nov-19 08:30N 40°47' E 024°42'4 8.0
2017-Nov-19 08:00N 40°51' E 024°41'1 2.3
2017-Nov-19 07:30N 40°51' E 024°42'1 1.4
2017-Nov-19 07:00N 40°52' E 024°41'5 9.8
2017-Nov-19 06:30N 40°47' E 024°42'0 0.0
2017-Nov-19 06:00N 40°47' E 024°42'0 0.0
2017-Nov-18 09:03N 40°47' E 024°42'0 0.6
2017-Nov-18 09:00N 40°47' E 024°42'4 8.4
2017-Nov-18 08:30N 40°51' E 024°41'1 2.2
2017-Nov-18 08:01N 40°51' E 024°42'1 1.3
2017-Nov-18 07:30N 40°52' E 024°41'5 9.8
2017-Nov-18 07:00N 40°47' E 024°42'0 0.0
2017-Nov-18 06:31N 40°47' E 024°42'1 1.5
2017-Nov-18 06:01N 40°48' E 024°42'4 7.9
2017-Nov-18 05:31N 40°51' E 024°42'0 0.0
2017-Nov-18 05:00N 40°51' E 024°42'0 0.0
2017-Nov-17 17:43N 40°51' E 024°42'1 4.5
2017-Nov-17 17:30N 40°52' E 024°41'5 9.6
2017-Nov-17 17:00N 40°47' E 024°42'0 0.1
2017-Nov-17 16:30N 40°47' E 024°42'0 0.0
2017-Nov-17 16:00N 40°47' E 024°42'0 0.0
2017-Nov-17 15:30N 40°47' E 024°42'0 0.0
2017-Nov-17 15:00N 40°47' E 024°42'0 0.0
2017-Nov-17 14:30N 40°47' E 024°42'0 0.0
2017-Nov-17 14:00N 40°47' E 024°42'0 0.0
2017-Nov-17 13:30N 40°47' E 024°42'0 0.0
2017-Nov-17 13:00N 40°47' E 024°42'3 6.6
2017-Nov-17 12:30N 40°50' E 024°41'2 3.4
2017-Nov-17 12:00N 40°51' E 024°42'1 1.6
2017-Nov-17 11:30N 40°52' E 024°41'5 9.7
2017-Nov-17 11:00N 40°47' E 024°42'0 0.0
2017-Nov-17 10:30N 40°47' E 024°42'1 1.6
2017-Nov-17 10:00N 40°48' E 024°42'4 7.8
2017-Nov-17 09:30N 40°51' E 024°42'0 0.0
2017-Nov-17 09:00N 40°51' E 024°42'4 7.1
2017-Nov-17 08:30N 40°48' E 024°42'1 2.3
2017-Nov-17 08:00N 40°47' E 024°42'0 0.0
2017-Nov-17 07:30N 40°47' E 024°42'0 0.0
2017-Nov-16 18:10N 40°47' E 024°42'1 6.3
2017-Nov-16 18:00N 40°48' E 024°42'4 7.5
2017-Nov-16 17:30N 40°51' E 024°42'0 0.0
2017-Nov-16 17:00N 40°51' E 024°42'1 1.8
2017-Nov-16 16:30N 40°52' E 024°41'5 9.8
2017-Nov-16 16:00N 40°47' E 024°42'0 0.0
2017-Nov-16 15:30N 40°47' E 024°42'0 0.0
2017-Nov-16 15:00N 40°47' E 024°42'1 2.4
2017-Nov-16 14:30N 40°48' E 024°41'4 7.3
2017-Nov-16 14:00N 40°51' E 024°42'1 1.5
2017-Nov-16 13:30N 40°52' E 024°41'5 9.8
2017-Nov-16 13:00N 40°47' E 024°42'0 0.0
2017-Nov-16 12:30N 40°47' E 024°42'0 0.0
2017-Nov-16 12:00N 40°47' E 024°42'1 1.8
2017-Nov-16 11:30N 40°48' E 024°42'4 7.6
2017-Nov-16 11:00N 40°51' E 024°42'0 0.0
2017-Nov-16 10:30N 40°51' E 024°42'3 5.5
2017-Nov-16 10:00N 40°49' E 024°42'2 3.3
2017-Nov-16 09:30N 40°48' E 024°40'4 8.1
2017-Nov-16 09:00N 40°49' E 024°35'4 8.5
2017-Nov-16 08:30N 40°49' E 024°29'4 8.4
2017-Nov-16 08:00N 40°50' E 024°24'4 7.6
2017-Nov-16 07:30N 40°51' E 024°19'0 0.0
2017-Nov-16 07:00N 40°51' E 024°19'0 0.0
2017-Nov-15 14:33N 40°51' E 024°19'0 0.0
2017-Nov-15 14:30N 40°51' E 024°19'5 9.3
2017-Nov-15 14:00N 40°49' E 024°24'611.9
2017-Nov-15 13:30N 40°47' E 024°32'3 5.6
2017-Nov-15 13:00N 40°47' E 024°35'5 9.6
2017-Nov-15 12:30N 40°47' E 024°42'1 1.1
2017-Nov-15 12:00N 40°47' E 024°42'0 0.0
2017-Nov-15 11:30N 40°47' E 024°42'0 0.0
2017-Nov-15 11:00N 40°47' E 024°42'4 7.2
2017-Nov-15 10:30N 40°50' E 024°41'2 3.2
2017-Nov-15 10:00N 40°51' E 024°42'1 1.5
2017-Nov-15 09:30N 40°52' E 024°41'5 9.6
2017-Nov-15 09:00N 40°47' E 024°42'0 0.1
2017-Nov-15 08:30N 40°47' E 024°42'4 7.7
2017-Nov-15 08:00N 40°50' E 024°40'2 3.5
2017-Nov-15 07:30N 40°51' E 024°42'1 1.6
2017-Nov-15 07:00N 40°52' E 024°41'5 9.8
2017-Nov-15 06:30N 40°47' E 024°42'0 0.1
2017-Nov-15 06:00N 40°47' E 024°42'0 0.0
2017-Nov-14 09:44N 40°47' E 024°42'0 0.0
2017-Nov-14 09:30N 40°47' E 024°42'3 6.8
2017-Nov-14 09:00N 40°50' E 024°41'2 3.5
2017-Nov-14 08:30N 40°51' E 024°42'0 0.7
2017-Nov-14 08:00N 40°52' E 024°42'5 9.5
2017-Nov-14 07:30N 40°47' E 024°42'0 0.0
2017-Nov-14 07:00N 40°47' E 024°42'3 6.5
2017-Nov-14 06:30N 40°50' E 024°41'2 3.5
2017-Nov-14 06:00N 40°51' E 024°42'0 0.9
2017-Nov-14 05:30N 40°52' E 024°42'5 9.4
2017-Nov-14 05:00N 40°47' E 024°42'0 0.0
2017-Nov-14 04:30N 40°47' E 024°42'0 0.0
2017-Nov-12 12:31N 40°47' E 024°42'0 0.0
2017-Nov-12 12:30N 40°47' E 024°42'3 6.4
2017-Nov-12 12:00N 40°50' E 024°41'2 3.5
2017-Nov-12 11:30N 40°51' E 024°42'1 1.3
2017-Nov-12 11:00N 40°52' E 024°41'5 9.7
2017-Nov-12 10:30N 40°47' E 024°42'0 0.0
2017-Nov-12 10:00N 40°47' E 024°42'4 9.0
2017-Nov-12 09:30N 40°51' E 024°41'1 1.9
2017-Nov-12 09:00N 40°51' E 024°42'0 0.0
2017-Nov-12 08:30N 40°51' E 024°42'0 0.0
2017-Nov-12 08:00N 40°51' E 024°42'0 0.0
2017-Nov-11 09:47N 40°51' E 024°42'0 0.0
2017-Nov-11 09:30N 40°51' E 024°42'3 6.2
2017-Nov-11 09:00N 40°48' E 024°42'2 3.3
2017-Nov-11 08:30N 40°50' E 024°41'2 3.4
2017-Nov-11 08:00N 40°51' E 024°42'0 0.8
2017-Nov-11 07:30N 40°52' E 024°42'5 9.5
2017-Nov-11 07:00N 40°47' E 024°42'0 0.0
2017-Nov-11 06:30N 40°47' E 024°42'1 2.0
2017-Nov-11 06:00N 40°48' E 024°42'4 7.4
2017-Nov-11 05:30N 40°51' E 024°42'0 0.1
2017-Nov-11 05:00N 40°51' E 024°42'0 0.0
2017-Nov-10 17:44N 40°51' E 024°42'0 2.1
2017-Nov-10 17:30N 40°52' E 024°42'5 9.6
2017-Nov-10 17:00N 40°47' E 024°42'0 0.0
2017-Nov-10 16:31N 40°47' E 024°42'0 0.0
2017-Nov-10 16:00N 40°47' E 024°42'0 0.8
2017-Nov-10 15:30N 40°47' E 024°42'4 8.5
2017-Nov-10 15:00N 40°51' E 024°42'1 2.5
2017-Nov-10 14:30N 40°50' E 024°41'4 7.5
2017-Nov-10 14:01N 40°47' E 024°42'0 0.0
2017-Nov-10 13:30N 40°47' E 024°42'0 0.0
2017-Nov-10 13:01N 40°47' E 024°42'0 0.0
2017-Nov-10 12:30N 40°47' E 024°42'0 0.0
2017-Nov-10 12:01N 40°47' E 024°42'0 0.0
2017-Nov-10 11:30N 40°47' E 024°42'0 0.0
2017-Nov-10 11:00N 40°47' E 024°42'0 0.0
2017-Nov-10 10:31N 40°47' E 024°42'0 0.0
2017-Nov-10 10:00N 40°47' E 024°42'0 0.0
2017-Nov-09 18:21N 40°47' E 024°42'1 1.6
2017-Nov-09 18:01N 40°47' E 024°42'4 8.3
2017-Nov-09 17:31N 40°51' E 024°42'0 0.0
2017-Nov-09 17:00N 40°51' E 024°42'1 1.2
2017-Nov-09 16:31N 40°52' E 024°41'5 9.8
2017-Nov-09 16:01N 40°47' E 024°42'0 0.0
2017-Nov-09 15:30N 40°47' E 024°42'0 0.0
2017-Nov-09 15:00N 40°47' E 024°42'0 0.7
2017-Nov-09 14:30N 40°47' E 024°42'4 8.7
2017-Nov-09 14:01N 40°51' E 024°42'1 1.9
2017-Nov-09 13:30N 40°51' E 024°41'5 9.1
2017-Nov-09 13:01N 40°47' E 024°42'0 0.0
2017-Nov-09 12:30N 40°47' E 024°42'  
Track history (hours):
 
Tides and Currents Weather Stations Pressure Air Temp Water Temp Dewpoint Dewpoint Depression Visibility Wind Speed Wind Dir Waves Ship Positions

Thassos III

Last reported at 2017-Nov-19 12:28 UTC. Time now 2017-Nov-20 00:38 UTC.
Position N 40°47' E 024°43'.

Length 100 m; draft 2.1 m.

Type: Passenger vessel. MMSI: 239371500.

Date/timePositionNaut miles runAvg speedWind from/ knotsBaromVisibWave heightAir tempDewpointWater temp
2017-Nov-19 12:28N 40°47' E 024°43'3 7.0
2017-Nov-19 12:00N 40°50' E 024°41'2 3.5
2017-Nov-19 11:30N 40°51' E 024°42'1 1.0
2017-Nov-19 11:00N 40°52' E 024°41'5 9.6
2017-Nov-19 10:30N 40°47' E 024°42'0 0.0
2017-Nov-19 10:00N 40°47' E 024°42'0 0.0
2017-Nov-19 09:30N 40°47' E 024°42'0 0.0
2017-Nov-19 09:00N 40°47' E 024°42'0 0.0
2017-Nov-19 08:30N 40°47' E 024°42'4 8.0
2017-Nov-19 08:00N 40°51' E 024°41'1 2.3
2017-Nov-19 07:30N 40°51' E 024°42'1 1.4
2017-Nov-19 07:00N 40°52' E 024°41'5 9.8
2017-Nov-19 06:30N 40°47' E 024°42'0 0.0
2017-Nov-19 06:00N 40°47' E 024°42'0 0.0
2017-Nov-18 09:03N 40°47' E 024°42'0 0.6
2017-Nov-18 09:00N 40°47' E 024°42'4 8.4
2017-Nov-18 08:30N 40°51' E 024°41'1 2.2
2017-Nov-18 08:01N 40°51' E 024°42'1 1.3
2017-Nov-18 07:30N 40°52' E 024°41'5 9.8
2017-Nov-18 07:00N 40°47' E 024°42'0 0.0
2017-Nov-18 06:31N 40°47' E 024°42'1 1.5
2017-Nov-18 06:01N 40°48' E 024°42'4 7.9
2017-Nov-18 05:31N 40°51' E 024°42'0 0.0
2017-Nov-18 05:00N 40°51' E 024°42'0 0.0
2017-Nov-17 17:43N 40°51' E 024°42'1 4.5
2017-Nov-17 17:30N 40°52' E 024°41'5 9.6
2017-Nov-17 17:00N 40°47' E 024°42'0 0.1
2017-Nov-17 16:30N 40°47' E 024°42'0 0.0
2017-Nov-17 16:00N 40°47' E 024°42'0 0.0
2017-Nov-17 15:30N 40°47' E 024°42'0 0.0
2017-Nov-17 15:00N 40°47' E 024°42'0 0.0
2017-Nov-17 14:30N 40°47' E 024°42'0 0.0
2017-Nov-17 14:00N 40°47' E 024°42'0 0.0
2017-Nov-17 13:30N 40°47' E 024°42'0 0.0
2017-Nov-17 13:00N 40°47' E 024°42'3 6.6
2017-Nov-17 12:30N 40°50' E 024°41'2 3.4
2017-Nov-17 12:00N 40°51' E 024°42'1 1.6
2017-Nov-17 11:30N 40°52' E 024°41'5 9.7
2017-Nov-17 11:00N 40°47' E 024°42'0 0.0
2017-Nov-17 10:30N 40°47' E 024°42'1 1.6
2017-Nov-17 10:00N 40°48' E 024°42'4 7.8
2017-Nov-17 09:30N 40°51' E 024°42'0 0.0
2017-Nov-17 09:00N 40°51' E 024°42'4 7.1
2017-Nov-17 08:30N 40°48' E 024°42'1 2.3
2017-Nov-17 08:00N 40°47' E 024°42'0 0.0
2017-Nov-17 07:30N 40°47' E 024°42'0 0.0
2017-Nov-16 18:10N 40°47' E 024°42'1 6.3
2017-Nov-16 18:00N 40°48' E 024°42'4 7.5
2017-Nov-16 17:30N 40°51' E 024°42'0 0.0
2017-Nov-16 17:00N 40°51' E 024°42'1 1.8
2017-Nov-16 16:30N 40°52' E 024°41'5 9.8
2017-Nov-16 16:00N 40°47' E 024°42'0 0.0
2017-Nov-16 15:30N 40°47' E 024°42'0 0.0
2017-Nov-16 15:00N 40°47' E 024°42'1 2.4
2017-Nov-16 14:30N 40°48' E 024°41'4 7.3
2017-Nov-16 14:00N 40°51' E 024°42'1 1.5
2017-Nov-16 13:30N 40°52' E 024°41'5 9.8
2017-Nov-16 13:00N 40°47' E 024°42'0 0.0
2017-Nov-16 12:30N 40°47' E 024°42'0 0.0
2017-Nov-16 12:00N 40°47' E 024°42'1 1.8
2017-Nov-16 11:30N 40°48' E 024°42'4 7.6
2017-Nov-16 11:00N 40°51' E 024°42'0 0.0
2017-Nov-16 10:30N 40°51' E 024°42'3 5.5
2017-Nov-16 10:00N 40°49' E 024°42'2 3.3
2017-Nov-16 09:30N 40°48' E 024°40'4 8.1
2017-Nov-16 09:00N 40°49' E 024°35'4 8.5
2017-Nov-16 08:30N 40°49' E 024°29'4 8.4
2017-Nov-16 08:00N 40°50' E 024°24'4 7.6
2017-Nov-16 07:30N 40°51' E 024°19'0 0.0
2017-Nov-16 07:00N 40°51' E 024°19'0 0.0
2017-Nov-15 14:33N 40°51' E 024°19'0 0.0
2017-Nov-15 14:30N 40°51' E 024°19'5 9.3
2017-Nov-15 14:00N 40°49' E 024°24'611.9
2017-Nov-15 13:30N 40°47' E 024°32'3 5.6
2017-Nov-15 13:00N 40°47' E 024°35'5 9.6
2017-Nov-15 12:30N 40°47' E 024°42'1 1.1
2017-Nov-15 12:00N 40°47' E 024°42'0 0.0
2017-Nov-15 11:30N 40°47' E 024°42'0 0.0
2017-Nov-15 11:00N 40°47' E 024°42'4 7.2
2017-Nov-15 10:30N 40°50' E 024°41'2 3.2
2017-Nov-15 10:00N 40°51' E 024°42'1 1.5
2017-Nov-15 09:30N 40°52' E 024°41'5 9.6
2017-Nov-15 09:00N 40°47' E 024°42'0 0.1
2017-Nov-15 08:30N 40°47' E 024°42'4 7.7
2017-Nov-15 08:00N 40°50' E 024°40'2 3.5
2017-Nov-15 07:30N 40°51' E 024°42'1 1.6
2017-Nov-15 07:00N 40°52' E 024°41'5 9.8
2017-Nov-15 06:30N 40°47' E 024°42'0 0.1
2017-Nov-15 06:00N 40°47' E 024°42'0 0.0
2017-Nov-14 09:44N 40°47' E 024°42'0 0.0
2017-Nov-14 09:30N 40°47' E 024°42'3 6.8
2017-Nov-14 09:00N 40°50' E 024°41'2 3.5
2017-Nov-14 08:30N 40°51' E 024°42'0 0.7
2017-Nov-14 08:00N 40°52' E 024°42'5 9.5
2017-Nov-14 07:30N 40°47' E 024°42'0 0.0
2017-Nov-14 07:00N 40°47' E 024°42'3 6.5
2017-Nov-14 06:30N 40°50' E 024°41'2 3.5
2017-Nov-14 06:00N 40°51' E 024°42'0 0.9
2017-Nov-14 05:30N 40°52' E 024°42'5 9.4
2017-Nov-14 05:00N 40°47' E 024°42'0 0.0
2017-Nov-14 04:30N 40°47' E 024°42'0 0.0
2017-Nov-12 12:31N 40°47' E 024°42'0 0.0
2017-Nov-12 12:30N 40°47' E 024°42'3 6.4
2017-Nov-12 12:00N 40°50' E 024°41'2 3.5
2017-Nov-12 11:30N 40°51' E 024°42'1 1.3
2017-Nov-12 11:00N 40°52' E 024°41'5 9.7
2017-Nov-12 10:30N 40°47' E 024°42'0 0.0
2017-Nov-12 10:00N 40°47' E 024°42'4 9.0
2017-Nov-12 09:30N 40°51' E 024°41'1 1.9
2017-Nov-12 09:00N 40°51' E 024°42'0 0.0
2017-Nov-12 08:30N 40°51' E 024°42'0 0.0
2017-Nov-12 08:00N 40°51' E 024°42'0 0.0
2017-Nov-11 09:47N 40°51' E 024°42'0 0.0
2017-Nov-11 09:30N 40°51' E 024°42'3 6.2
2017-Nov-11 09:00N 40°48' E 024°42'2 3.3
2017-Nov-11 08:30N 40°50' E 024°41'2 3.4
2017-Nov-11 08:00N 40°51' E 024°42'0 0.8
2017-Nov-11 07:30N 40°52' E 024°42'5 9.5
2017-Nov-11 07:00N 40°47' E 024°42'0 0.0
2017-Nov-11 06:30N 40°47' E 024°42'1 2.0
2017-Nov-11 06:00N 40°48' E 024°42'4 7.4
2017-Nov-11 05:30N 40°51' E 024°42'0 0.1
2017-Nov-11 05:00N 40°51' E 024°42'0 0.0
2017-Nov-10 17:44N 40°51' E 024°42'0 2.1
2017-Nov-10 17:30N 40°52' E 024°42'5 9.6
2017-Nov-10 17:00N 40°47' E 024°42'0 0.0
2017-Nov-10 16:31N 40°47' E 024°42'0 0.0
2017-Nov-10 16:00N 40°47' E 024°42'0 0.8
2017-Nov-10 15:30N 40°47' E 024°42'4 8.5
2017-Nov-10 15:00N 40°51' E 024°42'1 2.5
2017-Nov-10 14:30N 40°50' E 024°41'4 7.5
2017-Nov-10 14:01N 40°47' E 024°42'0 0.0
2017-Nov-10 13:30N 40°47' E 024°42'0 0.0
2017-Nov-10 13:01N 40°47' E 024°42'0 0.0
2017-Nov-10 12:30N 40°47' E 024°42'0 0.0
2017-Nov-10 12:01N 40°47' E 024°42'0 0.0
2017-Nov-10 11:30N 40°47' E 024°42'0 0.0
2017-Nov-10 11:00N 40°47' E 024°42'0 0.0
2017-Nov-10 10:31N 40°47' E 024°42'0 0.0
2017-Nov-10 10:00N 40°47' E 024°42'0 0.0
2017-Nov-09 18:21N 40°47' E 024°42'1 1.6
2017-Nov-09 18:01N 40°47' E 024°42'4 8.3
2017-Nov-09 17:31N 40°51' E 024°42'0 0.0
2017-Nov-09 17:00N 40°51' E 024°42'1 1.2
2017-Nov-09 16:31N 40°52' E 024°41'5 9.8
2017-Nov-09 16:01N 40°47' E 024°42'0 0.0
2017-Nov-09 15:30N 40°47' E 024°42'0 0.0
2017-Nov-09 15:00N 40°47' E 024°42'0 0.7
2017-Nov-09 14:30N 40°47' E 024°42'4 8.7
2017-Nov-09 14:01N 40°51' E 024°42'1 1.9
2017-Nov-09 13:30N 40°51' E 024°41'5 9.1
2017-Nov-09 13:01N 40°47' E 024°42'0 0.0
2017-Nov-09 12:30N 40°47' E 024°42'  

Dump ship's entire track history